首页
METAR-TAF:

METAR-TAF

机场 :

班德爾馬, 土耳其

纬度: 40-19N, 经度: 027-58E, 海拔: 51米

当前天气观测

该预报发布于10小时和21分钟前的15:10 UTC
风速7节,风向西北,在西转西北之间变化
温度 21°C
湿度 56%
气压 1014 hPa
能见度10公里或以上
散云层高于3500英尺
多云层高于10000英尺

METAR: LTBG 301510Z 32007KT 290V350 9999 SCT035 BKN100 21/12 Q1014 RESHRA NOSIG RMK RWY18 33010KT

时间: 04:31 (01:31 UTC)

预报

该预报发布于2小时和51分钟前的22:40 UTC
预报有效从31日的 00点(UTC)到 31日的 09点(UTC)
风速2节,风向多变
能见度10公里或以上
1500米以下无云,无积雨云

TAF: LTBG 302240Z 3100/3109 VRB02KT CAVOK

超过4000个机场的气象观测和天气预报(METAR&TAF报告)。

可查询的气象台以黄色和红色小点在地图上表示。

将鼠标移到小点上方,可查看气象台名称。

然后点击查看天气观测和预报。

如需切换地图:点击带黑十字的绿色按钮放大地图;点击带横线的绿色按钮缩小地图;或者点击绿色箭头查看邻近地区的地图。


METAR-TAF: